sensor_id;sensor_type;location;lat;lon;timestamp;P1;durP1;ratioP1;P2;durP2;ratioP2
42084;SDS011;27746;52.228;20.890;2022-09-27T00:02:02;21.25;;;16.08;;
42084;SDS011;27746;52.228;20.890;2022-09-27T00:04:29;21.67;;;15.88;;
42084;SDS011;27746;52.228;20.890;2022-09-27T00:06:56;20.92;;;15.35;;
42084;SDS011;27746;52.228;20.890;2022-09-27T00:09:22;23.67;;;16.65;;
42084;SDS011;27746;52.228;20.890;2022-09-27T00:11:49;21.38;;;15.88;;
42084;SDS011;27746;52.228;20.890;2022-09-27T00:14:16;25.75;;;16.42;;
42084;SDS011;27746;52.228;20.890;2022-09-27T00:16:43;22.38;;;16.08;;
42084;SDS011;27746;52.228;20.890;2022-09-27T00:19:12;22.80;;;15.70;;
42084;SDS011;27746;52.228;20.890;2022-09-27T00:21:40;22.40;;;16.13;;
42084;SDS011;27746;52.228;20.890;2022-09-27T00:24:09;23.95;;;16.00;;
42084;SDS011;27746;52.228;20.890;2022-09-27T00:26:37;28.58;;;18.17;;
42084;SDS011;27746;52.228;20.890;2022-09-27T00:29:04;23.33;;;18.00;;
42084;SDS011;27746;52.228;20.890;2022-09-27T00:31:31;24.60;;;18.67;;
42084;SDS011;27746;52.228;20.890;2022-09-27T00:33:59;23.88;;;18.42;;
42084;SDS011;27746;52.228;20.890;2022-09-27T00:36:28;28.60;;;19.02;;
42084;SDS011;27746;52.228;20.890;2022-09-27T00:38:56;26.27;;;19.55;;
42084;SDS011;27746;52.228;20.890;2022-09-27T00:41:25;27.58;;;19.48;;
42084;SDS011;27746;52.228;20.890;2022-09-27T00:43:53;27.17;;;18.90;;
42084;SDS011;27746;52.228;20.890;2022-09-27T00:46:22;28.92;;;20.13;;
42084;SDS011;27746;52.228;20.890;2022-09-27T00:48:58;28.67;;;20.67;;
42084;SDS011;27746;52.228;20.890;2022-09-27T00:51:32;29.75;;;20.58;;
42084;SDS011;27746;52.228;20.890;2022-09-27T00:54:01;28.77;;;20.60;;
42084;SDS011;27746;52.228;20.890;2022-09-27T00:56:28;30.98;;;21.10;;
42084;SDS011;27746;52.228;20.890;2022-09-27T00:58:57;26.30;;;19.88;;
42084;SDS011;27746;52.228;20.890;2022-09-27T01:01:28;28.27;;;17.73;;
42084;SDS011;27746;52.228;20.890;2022-09-27T01:03:56;27.65;;;19.73;;
42084;SDS011;27746;52.228;20.890;2022-09-27T01:06:28;27.20;;;20.38;;
42084;SDS011;27746;52.228;20.890;2022-09-27T01:08:57;27.33;;;19.50;;
42084;SDS011;27746;52.228;20.890;2022-09-27T01:11:34;26.42;;;18.58;;
42084;SDS011;27746;52.228;20.890;2022-09-27T01:17:06;27.83;;;19.38;;
42084;SDS011;27746;52.228;20.890;2022-09-27T01:19:55;26.88;;;19.33;;
42084;SDS011;27746;52.228;20.890;2022-09-27T01:22:37;27.60;;;19.52;;
42084;SDS011;27746;52.228;20.890;2022-09-27T01:25:15;30.45;;;20.40;;
42084;SDS011;27746;52.228;20.890;2022-09-27T01:28:04;29.65;;;18.77;;
42084;SDS011;27746;52.228;20.890;2022-09-27T01:30:42;26.30;;;19.75;;
42084;SDS011;27746;52.228;20.890;2022-09-27T01:33:22;27.63;;;19.42;;
42084;SDS011;27746;52.228;20.890;2022-09-27T01:35:59;25.23;;;18.05;;
42084;SDS011;27746;52.228;20.890;2022-09-27T01:38:35;28.08;;;19.10;;
42084;SDS011;27746;52.228;20.890;2022-09-27T01:41:09;30.02;;;19.48;;
42084;SDS011;27746;52.228;20.890;2022-09-27T01:43:45;27.40;;;20.02;;
42084;SDS011;27746;52.228;20.890;2022-09-27T01:46:17;26.45;;;19.58;;
42084;SDS011;27746;52.228;20.890;2022-09-27T01:48:48;28.13;;;18.63;;
42084;SDS011;27746;52.228;20.890;2022-09-27T01:51:16;25.98;;;18.60;;
42084;SDS011;27746;52.228;20.890;2022-09-27T01:53:46;30.13;;;20.15;;
42084;SDS011;27746;52.228;20.890;2022-09-27T01:56:19;26.88;;;19.13;;
42084;SDS011;27746;52.228;20.890;2022-09-27T01:58:51;27.27;;;19.88;;
42084;SDS011;27746;52.228;20.890;2022-09-27T02:01:23;33.40;;;21.80;;
42084;SDS011;27746;52.228;20.890;2022-09-27T02:03:55;29.05;;;21.88;;
42084;SDS011;27746;52.228;20.890;2022-09-27T02:06:26;26.67;;;19.13;;
42084;SDS011;27746;52.228;20.890;2022-09-27T02:08:59;27.73;;;20.45;;
42084;SDS011;27746;52.228;20.890;2022-09-27T02:11:30;31.10;;;21.33;;
42084;SDS011;27746;52.228;20.890;2022-09-27T02:13:59;30.92;;;21.08;;
42084;SDS011;27746;52.228;20.890;2022-09-27T02:16:37;31.77;;;21.55;;
42084;SDS011;27746;52.228;20.890;2022-09-27T02:19:17;29.88;;;20.10;;
42084;SDS011;27746;52.228;20.890;2022-09-27T02:21:53;30.08;;;20.75;;
42084;SDS011;27746;52.228;20.890;2022-09-27T02:24:28;30.17;;;20.88;;
42084;SDS011;27746;52.228;20.890;2022-09-27T02:27:00;32.40;;;22.10;;
42084;SDS011;27746;52.228;20.890;2022-09-27T02:29:33;30.27;;;20.83;;
42084;SDS011;27746;52.228;20.890;2022-09-27T02:34:32;30.17;;;19.85;;
42084;SDS011;27746;52.228;20.890;2022-09-27T02:37:02;34.22;;;21.17;;
42084;SDS011;27746;52.228;20.890;2022-09-27T02:39:29;28.27;;;20.83;;
42084;SDS011;27746;52.228;20.890;2022-09-27T02:41:56;30.38;;;21.33;;
42084;SDS011;27746;52.228;20.890;2022-09-27T02:44:24;29.13;;;20.30;;
42084;SDS011;27746;52.228;20.890;2022-09-27T02:46:58;30.35;;;21.08;;
42084;SDS011;27746;52.228;20.890;2022-09-27T02:49:42;29.65;;;20.50;;
42084;SDS011;27746;52.228;20.890;2022-09-27T02:52:21;30.02;;;19.70;;
42084;SDS011;27746;52.228;20.890;2022-09-27T02:54:58;31.83;;;21.35;;
42084;SDS011;27746;52.228;20.890;2022-09-27T02:57:37;38.28;;;22.13;;
42084;SDS011;27746;52.228;20.890;2022-09-27T03:00:12;34.05;;;22.25;;
42084;SDS011;27746;52.228;20.890;2022-09-27T03:02:45;33.38;;;21.27;;
42084;SDS011;27746;52.228;20.890;2022-09-27T03:05:20;31.10;;;21.23;;
42084;SDS011;27746;52.228;20.890;2022-09-27T03:07:49;35.92;;;21.48;;
42084;SDS011;27746;52.228;20.890;2022-09-27T03:10:17;34.28;;;21.77;;
42084;SDS011;27746;52.228;20.890;2022-09-27T03:12:46;37.05;;;24.38;;
42084;SDS011;27746;52.228;20.890;2022-09-27T03:15:13;37.53;;;24.10;;
42084;SDS011;27746;52.228;20.890;2022-09-27T03:17:40;36.35;;;24.02;;
42084;SDS011;27746;52.228;20.890;2022-09-27T03:20:07;34.28;;;23.08;;
42084;SDS011;27746;52.228;20.890;2022-09-27T03:22:35;37.08;;;22.13;;
42084;SDS011;27746;52.228;20.890;2022-09-27T03:25:03;36.35;;;23.58;;
42084;SDS011;27746;52.228;20.890;2022-09-27T03:27:30;35.47;;;22.58;;
42084;SDS011;27746;52.228;20.890;2022-09-27T03:29:57;39.10;;;24.02;;
42084;SDS011;27746;52.228;20.890;2022-09-27T03:32:24;36.15;;;23.88;;
42084;SDS011;27746;52.228;20.890;2022-09-27T03:34:51;37.30;;;24.27;;
42084;SDS011;27746;52.228;20.890;2022-09-27T03:37:19;38.80;;;24.02;;
42084;SDS011;27746;52.228;20.890;2022-09-27T03:39:47;38.00;;;24.83;;
42084;SDS011;27746;52.228;20.890;2022-09-27T03:42:14;41.38;;;24.80;;
42084;SDS011;27746;52.228;20.890;2022-09-27T03:44:40;41.50;;;24.70;;
42084;SDS011;27746;52.228;20.890;2022-09-27T03:47:08;37.50;;;23.80;;
42084;SDS011;27746;52.228;20.890;2022-09-27T03:49:34;42.47;;;24.35;;
42084;SDS011;27746;52.228;20.890;2022-09-27T03:52:01;39.42;;;23.73;;
42084;SDS011;27746;52.228;20.890;2022-09-27T03:54:28;39.10;;;23.35;;
42084;SDS011;27746;52.228;20.890;2022-09-27T03:56:56;39.67;;;23.13;;
42084;SDS011;27746;52.228;20.890;2022-09-27T03:59:23;37.10;;;22.27;;
42084;SDS011;27746;52.228;20.890;2022-09-27T04:01:50;34.30;;;22.25;;
42084;SDS011;27746;52.228;20.890;2022-09-27T04:04:17;40.33;;;25.13;;
42084;SDS011;27746;52.228;20.890;2022-09-27T04:06:44;39.15;;;24.80;;
42084;SDS011;27746;52.228;20.890;2022-09-27T04:09:10;37.03;;;22.52;;
42084;SDS011;27746;52.228;20.890;2022-09-27T04:11:37;39.15;;;22.95;;
42084;SDS011;27746;52.228;20.890;2022-09-27T04:14:05;39.20;;;21.85;;
42084;SDS011;27746;52.228;20.890;2022-09-27T04:16:32;40.00;;;21.33;;
42084;SDS011;27746;52.228;20.890;2022-09-27T04:18:59;47.80;;;23.13;;
42084;SDS011;27746;52.228;20.890;2022-09-27T04:21:27;35.03;;;21.30;;
42084;SDS011;27746;52.228;20.890;2022-09-27T04:23:53;41.47;;;22.20;;
42084;SDS011;27746;52.228;20.890;2022-09-27T04:26:20;40.05;;;23.30;;
42084;SDS011;27746;52.228;20.890;2022-09-27T04:28:47;41.25;;;24.92;;
42084;SDS011;27746;52.228;20.890;2022-09-27T04:31:16;36.50;;;22.02;;
42084;SDS011;27746;52.228;20.890;2022-09-27T04:33:43;43.85;;;23.75;;
42084;SDS011;27746;52.228;20.890;2022-09-27T04:36:10;42.15;;;24.52;;
42084;SDS011;27746;52.228;20.890;2022-09-27T04:38:50;41.90;;;22.98;;
42084;SDS011;27746;52.228;20.890;2022-09-27T04:41:17;35.75;;;20.90;;
42084;SDS011;27746;52.228;20.890;2022-09-27T04:43:45;39.95;;;22.65;;
42084;SDS011;27746;52.228;20.890;2022-09-27T04:46:12;40.03;;;23.10;;
42084;SDS011;27746;52.228;20.890;2022-09-27T04:48:40;40.22;;;23.40;;
42084;SDS011;27746;52.228;20.890;2022-09-27T04:51:08;47.40;;;24.00;;
42084;SDS011;27746;52.228;20.890;2022-09-27T04:53:35;42.55;;;23.08;;
42084;SDS011;27746;52.228;20.890;2022-09-27T04:56:02;40.05;;;22.92;;
42084;SDS011;27746;52.228;20.890;2022-09-27T04:58:31;45.13;;;23.30;;
42084;SDS011;27746;52.228;20.890;2022-09-27T05:00:59;41.05;;;22.73;;
42084;SDS011;27746;52.228;20.890;2022-09-27T05:03:26;38.28;;;22.52;;
42084;SDS011;27746;52.228;20.890;2022-09-27T05:05:54;37.22;;;22.65;;
42084;SDS011;27746;52.228;20.890;2022-09-27T05:08:21;38.83;;;22.55;;
42084;SDS011;27746;52.228;20.890;2022-09-27T05:10:48;41.22;;;23.08;;
42084;SDS011;27746;52.228;20.890;2022-09-27T05:13:14;39.00;;;21.55;;
42084;SDS011;27746;52.228;20.890;2022-09-27T05:15:42;40.60;;;22.52;;
42084;SDS011;27746;52.228;20.890;2022-09-27T05:18:10;43.35;;;23.30;;
42084;SDS011;27746;52.228;20.890;2022-09-27T05:20:37;61.83;;;25.27;;
42084;SDS011;27746;52.228;20.890;2022-09-27T05:23:05;42.17;;;23.58;;
42084;SDS011;27746;52.228;20.890;2022-09-27T05:25:32;58.20;;;26.95;;
42084;SDS011;27746;52.228;20.890;2022-09-27T05:27:59;40.30;;;23.98;;
42084;SDS011;27746;52.228;20.890;2022-09-27T05:30:26;50.85;;;26.55;;
42084;SDS011;27746;52.228;20.890;2022-09-27T05:32:53;50.42;;;26.83;;
42084;SDS011;27746;52.228;20.890;2022-09-27T05:35:21;50.67;;;28.13;;
42084;SDS011;27746;52.228;20.890;2022-09-27T05:37:51;56.65;;;28.17;;
42084;SDS011;27746;52.228;20.890;2022-09-27T05:40:19;54.83;;;29.75;;
42084;SDS011;27746;52.228;20.890;2022-09-27T05:42:48;50.13;;;28.17;;
42084;SDS011;27746;52.228;20.890;2022-09-27T05:45:15;61.00;;;30.17;;
42084;SDS011;27746;52.228;20.890;2022-09-27T05:47:42;56.63;;;27.67;;
42084;SDS011;27746;52.228;20.890;2022-09-27T05:50:09;59.55;;;29.67;;
42084;SDS011;27746;52.228;20.890;2022-09-27T05:52:35;50.80;;;27.63;;
42084;SDS011;27746;52.228;20.890;2022-09-27T05:55:02;57.30;;;27.77;;
42084;SDS011;27746;52.228;20.890;2022-09-27T05:57:31;58.20;;;26.33;;
42084;SDS011;27746;52.228;20.890;2022-09-27T05:59:58;60.85;;;28.20;;
42084;SDS011;27746;52.228;20.890;2022-09-27T06:02:25;60.88;;;28.70;;
42084;SDS011;27746;52.228;20.890;2022-09-27T06:04:52;53.17;;;29.02;;
42084;SDS011;27746;52.228;20.890;2022-09-27T06:07:21;52.22;;;28.23;;
42084;SDS011;27746;52.228;20.890;2022-09-27T06:09:48;58.55;;;30.50;;
42084;SDS011;27746;52.228;20.890;2022-09-27T06:12:14;55.28;;;29.77;;
42084;SDS011;27746;52.228;20.890;2022-09-27T06:14:45;58.50;;;28.40;;
42084;SDS011;27746;52.228;20.890;2022-09-27T06:17:12;55.60;;;28.55;;
42084;SDS011;27746;52.228;20.890;2022-09-27T06:19:39;53.47;;;28.73;;
42084;SDS011;27746;52.228;20.890;2022-09-27T06:22:06;55.30;;;29.20;;
42084;SDS011;27746;52.228;20.890;2022-09-27T06:24:32;59.20;;;28.42;;
42084;SDS011;27746;52.228;20.890;2022-09-27T06:26:59;55.20;;;28.50;;
42084;SDS011;27746;52.228;20.890;2022-09-27T06:29:26;55.92;;;28.60;;
42084;SDS011;27746;52.228;20.890;2022-09-27T06:31:55;55.22;;;28.77;;
42084;SDS011;27746;52.228;20.890;2022-09-27T06:34:23;54.70;;;28.33;;
42084;SDS011;27746;52.228;20.890;2022-09-27T06:36:50;56.72;;;30.25;;
42084;SDS011;27746;52.228;20.890;2022-09-27T06:39:16;61.35;;;29.13;;
42084;SDS011;27746;52.228;20.890;2022-09-27T06:41:43;57.35;;;29.80;;
42084;SDS011;27746;52.228;20.890;2022-09-27T06:44:10;62.58;;;32.80;;
42084;SDS011;27746;52.228;20.890;2022-09-27T06:46:38;61.33;;;31.50;;
42084;SDS011;27746;52.228;20.890;2022-09-27T06:49:08;66.80;;;33.53;;
42084;SDS011;27746;52.228;20.890;2022-09-27T06:51:34;72.35;;;34.13;;
42084;SDS011;27746;52.228;20.890;2022-09-27T06:54:01;56.95;;;29.83;;
42084;SDS011;27746;52.228;20.890;2022-09-27T06:56:28;58.42;;;30.45;;
42084;SDS011;27746;52.228;20.890;2022-09-27T06:58:54;55.97;;;30.35;;
42084;SDS011;27746;52.228;20.890;2022-09-27T07:01:39;55.30;;;28.30;;
42084;SDS011;27746;52.228;20.890;2022-09-27T07:04:05;54.78;;;27.05;;
42084;SDS011;27746;52.228;20.890;2022-09-27T07:06:35;45.28;;;24.10;;
42084;SDS011;27746;52.228;20.890;2022-09-27T07:09:02;46.72;;;25.95;;
42084;SDS011;27746;52.228;20.890;2022-09-27T07:11:30;47.63;;;24.58;;
42084;SDS011;27746;52.228;20.890;2022-09-27T07:14:00;52.72;;;25.80;;
42084;SDS011;27746;52.228;20.890;2022-09-27T07:16:28;40.97;;;22.30;;
42084;SDS011;27746;52.228;20.890;2022-09-27T07:18:55;38.42;;;22.60;;
42084;SDS011;27746;52.228;20.890;2022-09-27T07:21:24;38.88;;;21.92;;
42084;SDS011;27746;52.228;20.890;2022-09-27T07:23:51;45.35;;;23.55;;
42084;SDS011;27746;52.228;20.890;2022-09-27T07:26:18;36.85;;;20.95;;
42084;SDS011;27746;52.228;20.890;2022-09-27T07:28:45;37.75;;;23.13;;
42084;SDS011;27746;52.228;20.890;2022-09-27T07:31:11;39.10;;;22.88;;
42084;SDS011;27746;52.228;20.890;2022-09-27T07:33:38;39.00;;;22.02;;
42084;SDS011;27746;52.228;20.890;2022-09-27T07:36:05;39.15;;;21.15;;
42084;SDS011;27746;52.228;20.890;2022-09-27T07:38:34;36.97;;;20.17;;
42084;SDS011;27746;52.228;20.890;2022-09-27T07:41:04;35.10;;;21.85;;
42084;SDS011;27746;52.228;20.890;2022-09-27T07:43:31;39.53;;;20.65;;
42084;SDS011;27746;52.228;20.890;2022-09-27T07:45:58;35.65;;;20.98;;
42084;SDS011;27746;52.228;20.890;2022-09-27T07:48:25;39.05;;;21.08;;
42084;SDS011;27746;52.228;20.890;2022-09-27T07:50:52;38.28;;;21.67;;
42084;SDS011;27746;52.228;20.890;2022-09-27T07:53:19;44.20;;;24.13;;
42084;SDS011;27746;52.228;20.890;2022-09-27T07:55:49;41.80;;;22.00;;
42084;SDS011;27746;52.228;20.890;2022-09-27T07:58:17;41.20;;;22.55;;
42084;SDS011;27746;52.228;20.890;2022-09-27T08:00:45;35.20;;;21.17;;
42084;SDS011;27746;52.228;20.890;2022-09-27T08:03:12;41.72;;;22.95;;
42084;SDS011;27746;52.228;20.890;2022-09-27T08:05:40;34.58;;;20.08;;
42084;SDS011;27746;52.228;20.890;2022-09-27T08:08:07;34.22;;;19.85;;
42084;SDS011;27746;52.228;20.890;2022-09-27T08:10:34;39.47;;;22.33;;
42084;SDS011;27746;52.228;20.890;2022-09-27T08:13:05;33.20;;;19.27;;
42084;SDS011;27746;52.228;20.890;2022-09-27T08:15:32;32.60;;;20.27;;
42084;SDS011;27746;52.228;20.890;2022-09-27T08:18:00;35.63;;;20.95;;
42084;SDS011;27746;52.228;20.890;2022-09-27T08:20:27;29.25;;;18.33;;
42084;SDS011;27746;52.228;20.890;2022-09-27T08:22:54;32.08;;;18.50;;
42084;SDS011;27746;52.228;20.890;2022-09-27T08:25:21;32.72;;;19.38;;
42084;SDS011;27746;52.228;20.890;2022-09-27T08:27:53;32.78;;;21.08;;
42084;SDS011;27746;52.228;20.890;2022-09-27T08:30:22;33.80;;;19.75;;
42084;SDS011;27746;52.228;20.890;2022-09-27T08:32:53;32.10;;;19.02;;
42084;SDS011;27746;52.228;20.890;2022-09-27T08:35:20;31.77;;;18.45;;
42084;SDS011;27746;52.228;20.890;2022-09-27T08:37:51;31.20;;;18.75;;
42084;SDS011;27746;52.228;20.890;2022-09-27T08:40:19;29.90;;;18.15;;
42084;SDS011;27746;52.228;20.890;2022-09-27T08:42:49;31.23;;;17.77;;
42084;SDS011;27746;52.228;20.890;2022-09-27T08:45:27;29.52;;;19.27;;
42084;SDS011;27746;52.228;20.890;2022-09-27T08:47:58;27.23;;;16.38;;
42084;SDS011;27746;52.228;20.890;2022-09-27T08:50:28;31.02;;;17.70;;
42084;SDS011;27746;52.228;20.890;2022-09-27T08:52:59;29.80;;;17.23;;
42084;SDS011;27746;52.228;20.890;2022-09-27T08:55:31;26.73;;;16.60;;
42084;SDS011;27746;52.228;20.890;2022-09-27T08:58:02;23.30;;;15.07;;
42084;SDS011;27746;52.228;20.890;2022-09-27T09:00:41;23.88;;;15.60;;
42084;SDS011;27746;52.228;20.890;2022-09-27T09:03:09;28.08;;;16.40;;
42084;SDS011;27746;52.228;20.890;2022-09-27T09:05:43;24.50;;;14.93;;
42084;SDS011;27746;52.228;20.890;2022-09-27T09:08:20;25.67;;;14.95;;
42084;SDS011;27746;52.228;20.890;2022-09-27T09:10:56;27.58;;;16.90;;
42084;SDS011;27746;52.228;20.890;2022-09-27T09:14:01;28.48;;;17.45;;
42084;SDS011;27746;52.228;20.890;2022-09-27T09:16:43;28.77;;;17.45;;
42084;SDS011;27746;52.228;20.890;2022-09-27T09:19:21;27.75;;;17.92;;
42084;SDS011;27746;52.228;20.890;2022-09-27T09:21:58;29.70;;;18.35;;
42084;SDS011;27746;52.228;20.890;2022-09-27T09:24:41;33.45;;;19.30;;
42084;SDS011;27746;52.228;20.890;2022-09-27T09:27:16;33.47;;;21.13;;
42084;SDS011;27746;52.228;20.890;2022-09-27T09:30:04;27.05;;;18.40;;
42084;SDS011;27746;52.228;20.890;2022-09-27T09:32:53;30.77;;;19.98;;
42084;SDS011;27746;52.228;20.890;2022-09-27T09:35:35;34.35;;;20.15;;
42084;SDS011;27746;52.228;20.890;2022-09-27T09:38:08;32.53;;;20.25;;
42084;SDS011;27746;52.228;20.890;2022-09-27T09:43:08;32.22;;;19.75;;
42084;SDS011;27746;52.228;20.890;2022-09-27T09:45:39;34.05;;;20.80;;
42084;SDS011;27746;52.228;20.890;2022-09-27T09:48:12;33.33;;;19.15;;
42084;SDS011;27746;52.228;20.890;2022-09-27T09:50:49;28.70;;;19.23;;
42084;SDS011;27746;52.228;20.890;2022-09-27T09:53:19;32.47;;;19.45;;
42084;SDS011;27746;52.228;20.890;2022-09-27T09:55:54;36.55;;;22.27;;
42084;SDS011;27746;52.228;20.890;2022-09-27T10:00:58;36.25;;;21.20;;
42084;SDS011;27746;52.228;20.890;2022-09-27T10:03:36;32.63;;;21.48;;
42084;SDS011;27746;52.228;20.890;2022-09-27T10:06:03;36.10;;;23.08;;
42084;SDS011;27746;52.228;20.890;2022-09-27T10:08:31;32.15;;;21.70;;
42084;SDS011;27746;52.228;20.890;2022-09-27T10:10:58;33.92;;;21.30;;
42084;SDS011;27746;52.228;20.890;2022-09-27T10:13:25;35.80;;;21.77;;
42084;SDS011;27746;52.228;20.890;2022-09-27T10:15:53;31.48;;;21.42;;
42084;SDS011;27746;52.228;20.890;2022-09-27T10:18:26;33.20;;;22.38;;
42084;SDS011;27746;52.228;20.890;2022-09-27T10:20:56;32.90;;;23.02;;
42084;SDS011;27746;52.228;20.890;2022-09-27T10:23:27;33.83;;;22.08;;
42084;SDS011;27746;52.228;20.890;2022-09-27T10:25:55;36.92;;;22.15;;
42084;SDS011;27746;52.228;20.890;2022-09-27T10:28:28;36.90;;;22.42;;
42084;SDS011;27746;52.228;20.890;2022-09-27T10:30:58;39.63;;;24.05;;
42084;SDS011;27746;52.228;20.890;2022-09-27T10:33:28;40.92;;;23.20;;
42084;SDS011;27746;52.228;20.890;2022-09-27T10:35:58;42.97;;;23.88;;
42084;SDS011;27746;52.228;20.890;2022-09-27T10:38:26;38.63;;;23.65;;
42084;SDS011;27746;52.228;20.890;2022-09-27T10:40:56;37.45;;;23.48;;
42084;SDS011;27746;52.228;20.890;2022-09-27T10:43:28;41.17;;;24.80;;
42084;SDS011;27746;52.228;20.890;2022-09-27T10:46:04;38.50;;;23.80;;
42084;SDS011;27746;52.228;20.890;2022-09-27T10:48:37;37.28;;;23.38;;
42084;SDS011;27746;52.228;20.890;2022-09-27T10:51:20;40.08;;;24.55;;
42084;SDS011;27746;52.228;20.890;2022-09-27T10:53:50;38.28;;;23.70;;
42084;SDS011;27746;52.228;20.890;2022-09-27T10:56:23;39.08;;;25.30;;
42084;SDS011;27746;52.228;20.890;2022-09-27T10:58:53;39.00;;;24.15;;
42084;SDS011;27746;52.228;20.890;2022-09-27T11:01:22;32.60;;;22.30;;
42084;SDS011;27746;52.228;20.890;2022-09-27T11:03:50;34.72;;;22.20;;
42084;SDS011;27746;52.228;20.890;2022-09-27T11:06:28;31.50;;;19.63;;
42084;SDS011;27746;52.228;20.890;2022-09-27T11:09:08;32.45;;;22.00;;
42084;SDS011;27746;52.228;20.890;2022-09-27T11:11:43;33.45;;;20.58;;
42084;SDS011;27746;52.228;20.890;2022-09-27T11:14:20;32.67;;;23.10;;
42084;SDS011;27746;52.228;20.890;2022-09-27T11:16:50;34.30;;;22.13;;
42084;SDS011;27746;52.228;20.890;2022-09-27T11:19:32;35.58;;;23.42;;
42084;SDS011;27746;52.228;20.890;2022-09-27T11:22:18;32.28;;;22.08;;
42084;SDS011;27746;52.228;20.890;2022-09-27T11:24:55;33.72;;;21.67;;
42084;SDS011;27746;52.228;20.890;2022-09-27T11:27:30;29.17;;;19.30;;
42084;SDS011;27746;52.228;20.890;2022-09-27T11:30:07;32.95;;;21.48;;
42084;SDS011;27746;52.228;20.890;2022-09-27T11:32:41;30.83;;;20.77;;
42084;SDS011;27746;52.228;20.890;2022-09-27T11:35:29;28.80;;;20.52;;
42084;SDS011;27746;52.228;20.890;2022-09-27T11:40:46;30.17;;;19.65;;
42084;SDS011;27746;52.228;20.890;2022-09-27T11:43:47;24.20;;;16.83;;
42084;SDS011;27746;52.228;20.890;2022-09-27T11:46:44;24.65;;;16.88;;
42084;SDS011;27746;52.228;20.890;2022-09-27T11:49:20;21.55;;;16.05;;
42084;SDS011;27746;52.228;20.890;2022-09-27T11:52:08;25.67;;;19.45;;
42084;SDS011;27746;52.228;20.890;2022-09-27T11:54:56;23.83;;;18.55;;
42084;SDS011;27746;52.228;20.890;2022-09-27T11:57:41;28.75;;;19.42;;
42084;SDS011;27746;52.228;20.890;2022-09-27T12:00:16;30.48;;;20.05;;
42084;SDS011;27746;52.228;20.890;2022-09-27T12:05:46;23.85;;;17.83;;
42084;SDS011;27746;52.228;20.890;2022-09-27T12:08:27;24.65;;;17.70;;
42084;SDS011;27746;52.228;20.890;2022-09-27T12:11:04;23.13;;;16.50;;
42084;SDS011;27746;52.228;20.890;2022-09-27T12:13:38;23.98;;;16.13;;
42084;SDS011;27746;52.228;20.890;2022-09-27T12:16:08;25.38;;;17.40;;
42084;SDS011;27746;52.228;20.890;2022-09-27T12:18:38;20.13;;;15.88;;
42084;SDS011;27746;52.228;20.890;2022-09-27T12:21:06;18.83;;;15.52;;
42084;SDS011;27746;52.228;20.890;2022-09-27T12:23:37;19.13;;;14.73;;
42084;SDS011;27746;52.228;20.890;2022-09-27T12:26:09;23.70;;;16.17;;
42084;SDS011;27746;52.228;20.890;2022-09-27T12:28:42;20.25;;;15.60;;
42084;SDS011;27746;52.228;20.890;2022-09-27T12:31:16;19.38;;;14.35;;
42084;SDS011;27746;52.228;20.890;2022-09-27T12:33:48;17.23;;;12.55;;
42084;SDS011;27746;52.228;20.890;2022-09-27T12:36:19;19.02;;;14.23;;
42084;SDS011;27746;52.228;20.890;2022-09-27T12:38:52;19.45;;;14.55;;
42084;SDS011;27746;52.228;20.890;2022-09-27T12:41:27;19.92;;;14.43;;
42084;SDS011;27746;52.228;20.890;2022-09-27T12:44:01;18.58;;;14.95;;
42084;SDS011;27746;52.228;20.890;2022-09-27T12:46:31;19.33;;;14.82;;
42084;SDS011;27746;52.228;20.890;2022-09-27T12:49:09;21.55;;;15.60;;
42084;SDS011;27746;52.228;20.890;2022-09-27T12:51:42;22.48;;;14.82;;
42084;SDS011;27746;52.228;20.890;2022-09-27T12:54:30;20.30;;;15.32;;
42084;SDS011;27746;52.228;20.890;2022-09-27T12:57:20;22.10;;;15.40;;
42084;SDS011;27746;52.228;20.890;2022-09-27T12:59:59;16.98;;;12.98;;
42084;SDS011;27746;52.228;20.890;2022-09-27T13:05:26;16.00;;;12.40;;
42084;SDS011;27746;52.228;20.890;2022-09-27T13:08:21;16.38;;;12.65;;
42084;SDS011;27746;52.228;20.890;2022-09-27T13:11:02;18.35;;;13.35;;
42084;SDS011;27746;52.228;20.890;2022-09-27T13:13:39;19.63;;;13.90;;
42084;SDS011;27746;52.228;20.890;2022-09-27T13:16:06;16.45;;;12.57;;
42084;SDS011;27746;52.228;20.890;2022-09-27T13:18:54;17.90;;;13.40;;
42084;SDS011;27746;52.228;20.890;2022-09-27T13:33:21;16.27;;;11.40;;
42084;SDS011;27746;52.228;20.890;2022-09-27T13:36:19;13.90;;;11.07;;
42084;SDS011;27746;52.228;20.890;2022-09-27T13:39:04;15.57;;;11.52;;
42084;SDS011;27746;52.228;20.890;2022-09-27T13:42:04;13.82;;;10.57;;
42084;SDS011;27746;52.228;20.890;2022-09-27T13:44:42;14.10;;;11.35;;
42084;SDS011;27746;52.228;20.890;2022-09-27T13:47:22;13.02;;;10.23;;
42084;SDS011;27746;52.228;20.890;2022-09-27T13:49:58;12.60;;;8.98;;
42084;SDS011;27746;52.228;20.890;2022-09-27T13:52:38;14.77;;;10.10;;
42084;SDS011;27746;52.228;20.890;2022-09-27T13:58:04;16.58;;;9.68;;
42084;SDS011;27746;52.228;20.890;2022-09-27T14:00:42;12.35;;;9.70;;
42084;SDS011;27746;52.228;20.890;2022-09-27T14:03:13;10.98;;;8.48;;
42084;SDS011;27746;52.228;20.890;2022-09-27T14:05:46;11.55;;;9.07;;
42084;SDS011;27746;52.228;20.890;2022-09-27T14:08:18;12.52;;;9.15;;
42084;SDS011;27746;52.228;20.890;2022-09-27T14:10:49;12.07;;;9.10;;
42084;SDS011;27746;52.228;20.890;2022-09-27T14:13:18;12.75;;;9.30;;
42084;SDS011;27746;52.228;20.890;2022-09-27T14:15:45;14.20;;;9.57;;
42084;SDS011;27746;52.228;20.890;2022-09-27T14:18:13;21.30;;;9.35;;
42084;SDS011;27746;52.228;20.890;2022-09-27T14:20:40;9.77;;;8.18;;
42084;SDS011;27746;52.228;20.890;2022-09-27T14:23:14;15.85;;;8.20;;
42084;SDS011;27746;52.228;20.890;2022-09-27T14:25:43;12.20;;;8.50;;
42084;SDS011;27746;52.228;20.890;2022-09-27T14:28:21;12.07;;;9.80;;
42084;SDS011;27746;52.228;20.890;2022-09-27T14:31:03;13.57;;;10.00;;
42084;SDS011;27746;52.228;20.890;2022-09-27T14:33:32;11.15;;;8.75;;
42084;SDS011;27746;52.228;20.890;2022-09-27T14:35:59;12.25;;;8.50;;
42084;SDS011;27746;52.228;20.890;2022-09-27T14:38:45;12.57;;;8.15;;
42084;SDS011;27746;52.228;20.890;2022-09-27T14:41:13;12.07;;;9.02;;
42084;SDS011;27746;52.228;20.890;2022-09-27T14:43:41;14.15;;;9.27;;
42084;SDS011;27746;52.228;20.890;2022-09-27T14:46:23;12.48;;;9.02;;
42084;SDS011;27746;52.228;20.890;2022-09-27T14:48:52;14.18;;;9.20;;
42084;SDS011;27746;52.228;20.890;2022-09-27T14:51:20;13.52;;;9.30;;
42084;SDS011;27746;52.228;20.890;2022-09-27T14:56:24;14.13;;;9.88;;
42084;SDS011;27746;52.228;20.890;2022-09-27T14:58:57;14.32;;;10.05;;
42084;SDS011;27746;52.228;20.890;2022-09-27T15:01:27;13.63;;;9.68;;
42084;SDS011;27746;52.228;20.890;2022-09-27T15:03:55;15.98;;;8.90;;
42084;SDS011;27746;52.228;20.890;2022-09-27T15:08:56;14.95;;;10.15;;
42084;SDS011;27746;52.228;20.890;2022-09-27T15:11:23;16.48;;;10.35;;
42084;SDS011;27746;52.228;20.890;2022-09-27T15:13:51;15.40;;;11.25;;
42084;SDS011;27746;52.228;20.890;2022-09-27T15:16:19;15.30;;;10.45;;